createdAt,value
2018-01-27T00:00:54.942Z,100495.61
2018-01-27T00:03:22.746Z,100491.84
2018-01-27T00:05:50.290Z,100501.56
2018-01-27T00:08:17.918Z,100499.86
2018-01-27T00:10:45.502Z,100502.40
2018-01-27T00:13:13.154Z,100504.52
2018-01-27T00:15:40.710Z,100501.16
2018-01-27T00:18:08.302Z,100502.02
2018-01-27T00:20:35.890Z,100504.98
2018-01-27T00:23:03.434Z,100510.08
2018-01-27T00:25:31.140Z,100508.80
2018-01-27T00:27:58.859Z,100498.23
2018-01-27T00:30:26.418Z,100496.97
2018-01-27T00:32:54.006Z,100504.16
2018-01-27T00:35:21.546Z,100502.06
2018-01-27T00:37:49.090Z,100499.10
2018-01-27T00:40:16.704Z,100506.72
2018-01-27T00:42:44.466Z,100507.97
2018-01-27T00:45:12.090Z,100510.08
2018-01-27T00:47:39.808Z,100513.89
2018-01-27T00:50:07.363Z,100509.23
2018-01-27T00:52:34.906Z,100507.12
2018-01-27T00:55:02.509Z,100512.63
2018-01-27T00:57:30.175Z,100497.41
2018-01-27T00:59:57.890Z,100501.63
2018-01-27T01:02:25.540Z,100507.55
2018-01-27T01:04:53.231Z,100486.42
2018-01-27T01:07:20.785Z,100505.86
2018-01-27T01:09:48.495Z,100499.94
2018-01-27T01:12:16.043Z,100507.95
2018-01-27T01:14:43.634Z,100518.11
2018-01-27T01:17:11.210Z,100508.81
2018-01-27T01:19:38.756Z,100506.29
2018-01-27T01:22:06.300Z,100507.13
2018-01-27T01:24:33.886Z,100502.48
2018-01-27T01:27:01.426Z,100498.24
2018-01-27T01:29:28.974Z,100494.02
2018-01-27T01:31:56.566Z,100488.55
2018-01-27T01:34:24.133Z,100483.91
2018-01-27T01:36:51.674Z,100494.03
2018-01-27T01:39:19.257Z,100492.77
2018-01-27T01:41:46.896Z,100493.17
2018-01-27T01:44:20.064Z,100492.77
2018-01-27T01:46:47.611Z,100495.72
2018-01-27T01:49:24.078Z,100501.63
2018-01-27T01:51:51.836Z,100496.56
2018-01-27T01:54:19.374Z,100496.15
2018-01-27T01:56:46.985Z,100496.58
2018-01-27T01:59:14.675Z,100493.20
2018-01-27T02:01:42.209Z,100496.15
2018-01-27T02:04:09.806Z,100492.77
2018-01-27T02:06:37.358Z,100489.38
2018-01-27T02:09:05.049Z,100491.50
2018-01-27T02:11:32.962Z,100492.77
2018-01-27T02:14:00.505Z,100482.62
2018-01-27T02:16:28.293Z,100493.16
2018-01-27T02:18:55.886Z,100486.43
2018-01-27T02:21:23.441Z,100484.72
2018-01-27T02:23:51.051Z,100488.95
2018-01-27T02:26:18.678Z,100485.58
2018-01-27T02:28:46.224Z,100494.45
2018-01-27T02:31:13.802Z,100497.39
2018-01-27T02:33:41.418Z,100495.70
2018-01-27T02:36:09.020Z,100492.35
2018-01-27T02:38:36.581Z,100493.17
2018-01-27T02:41:04.375Z,100496.14
2018-01-27T02:43:32.091Z,100492.75
2018-01-27T02:45:59.645Z,100491.46
2018-01-27T02:48:27.318Z,100496.53
2018-01-27T02:50:54.856Z,100492.31
2018-01-27T02:53:22.666Z,100489.76
2018-01-27T02:55:50.483Z,100490.16
2018-01-27T02:58:18.198Z,100485.95
2018-01-27T03:00:45.892Z,100490.16
2018-01-27T03:03:13.490Z,100493.13
2018-01-27T03:05:41.253Z,100485.92
2018-01-27T03:08:08.802Z,100500.29
2018-01-27T03:10:36.481Z,100495.20
2018-01-27T03:13:04.099Z,100504.49
2018-01-27T03:15:31.827Z,100503.62
2018-01-27T03:17:59.545Z,100512.06
2018-01-27T03:20:27.273Z,100506.59
2018-01-27T03:22:54.992Z,100507.01
2018-01-27T03:25:22.590Z,100511.21
2018-01-27T03:27:50.322Z,100510.77
2018-01-27T03:30:17.860Z,100513.31
2018-01-27T03:32:45.551Z,100516.28
2018-01-27T03:35:13.106Z,100519.64
2018-01-27T03:37:40.889Z,100522.20
2018-01-27T03:40:08.611Z,100524.31
2018-01-27T03:42:36.226Z,100506.13
2018-01-27T03:45:03.802Z,100528.98
2018-01-27T03:47:31.385Z,100535.73
2018-01-27T03:49:59.177Z,100531.45
2018-01-27T03:52:26.718Z,100533.56
2018-01-27T03:54:54.441Z,100531.87
2018-01-27T03:57:21.982Z,100534.81
2018-01-27T03:59:49.518Z,100537.35
2018-01-27T04:02:17.165Z,100536.50
2018-01-27T04:04:44.758Z,100535.25
2018-01-27T04:07:12.351Z,100528.89
2018-01-27T04:09:39.938Z,100531.80
2018-01-27T04:12:07.483Z,100536.45
2018-01-27T04:14:35.026Z,100538.58
2018-01-27T04:17:02.774Z,100537.70
2018-01-27T04:19:30.310Z,100531.78
2018-01-27T04:21:57.846Z,100536.43
2018-01-27T04:24:25.430Z,100541.93
2018-01-27T04:26:53.006Z,100537.68
2018-01-27T04:29:20.763Z,100540.63
2018-01-27T04:31:48.483Z,100545.29
2018-01-27T04:34:16.075Z,100537.70
2018-01-27T04:36:43.730Z,100536.46
2018-01-27T04:39:11.318Z,100536.86
2018-01-27T04:41:38.855Z,100532.61
2018-01-27T04:44:06.418Z,100535.11
2018-01-27T04:46:34.002Z,100532.16
2018-01-27T04:49:01.550Z,100537.23
2018-01-27T04:51:29.086Z,100534.69
2018-01-27T04:53:56.662Z,100532.61
2018-01-27T04:56:24.196Z,100536.34
2018-01-27T04:58:51.730Z,100535.92
2018-01-27T05:01:19.442Z,100540.16
2018-01-27T05:03:47.063Z,100539.68
2018-01-27T05:06:14.598Z,100537.12
2018-01-27T05:08:42.195Z,100540.95
2018-01-27T05:11:09.726Z,100545.20
2018-01-27T05:13:37.266Z,100549.44
2018-01-27T05:16:05.051Z,100547.35
2018-01-27T05:18:32.591Z,100554.95
2018-01-27T05:21:00.136Z,100549.00
2018-01-27T05:23:27.735Z,100546.92
2018-01-27T05:25:55.416Z,100554.12
2018-01-27T05:28:23.143Z,100559.59
2018-01-27T05:30:50.811Z,100562.55
2018-01-27T05:33:18.385Z,100567.61
2018-01-27T05:35:45.975Z,100572.69
2018-01-27T05:38:13.735Z,100568.41
2018-01-27T05:40:41.280Z,100569.66
2018-01-27T05:43:09.042Z,100578.11
2018-01-27T05:45:36.860Z,100584.83
2018-01-27T05:48:04.397Z,100589.81
2018-01-27T05:50:31.942Z,100595.27
2018-01-27T05:52:59.714Z,100594.44
2018-01-27T05:55:27.361Z,100603.25
2018-01-27T05:57:54.911Z,100604.14
2018-01-27T06:00:22.870Z,100609.68
2018-01-27T06:02:50.485Z,100608.02
2018-01-27T06:05:18.026Z,100608.00
2018-01-27T06:07:45.686Z,100610.55
2018-01-27T06:10:13.287Z,100605.46
2018-01-27T06:12:40.952Z,100608.45
2018-01-27T06:15:08.776Z,100616.53
2018-01-27T06:17:36.318Z,100605.17
2018-01-27T06:20:03.886Z,100617.52
2018-01-27T06:22:31.541Z,100619.67
2018-01-27T06:24:59.146Z,100615.48
2018-01-27T06:27:26.759Z,100615.50
2018-01-27T06:29:54.298Z,100619.78
2018-01-27T06:32:21.900Z,100622.75
2018-01-27T06:34:49.628Z,100627.42
2018-01-27T06:37:17.179Z,100626.98
2018-01-27T06:39:44.769Z,100629.11
2018-01-27T06:42:12.572Z,100635.04
2018-01-27T06:44:40.145Z,100627.02
2018-01-27T06:47:07.690Z,100635.05
2018-01-27T06:49:35.238Z,100640.17
2018-01-27T06:52:02.918Z,100635.58
2018-01-27T06:54:30.454Z,100638.13
2018-01-27T06:56:58.000Z,100628.86
2018-01-27T06:59:25.554Z,100636.87
2018-01-27T07:01:53.094Z,100640.70
2018-01-27T07:04:20.932Z,100638.15
2018-01-27T07:06:48.480Z,100636.47
2018-01-27T07:09:16.026Z,100635.58
2018-01-27T07:11:43.577Z,100642.74
2018-01-27T07:14:11.210Z,100636.83
2018-01-27T07:16:38.810Z,100633.77
2018-01-27T07:19:06.358Z,100634.71
2018-01-27T07:21:34.063Z,100634.41
2018-01-27T07:24:01.875Z,100636.56
2018-01-27T07:26:29.785Z,100635.76
2018-01-27T07:28:57.442Z,100645.02
2018-01-27T07:31:24.999Z,100635.55
2018-01-27T07:33:52.551Z,100634.36
2018-01-27T07:36:20.265Z,100635.67
2018-01-27T07:38:47.802Z,100614.73
2018-01-27T07:41:15.602Z,100631.28
2018-01-27T07:43:43.182Z,100637.09
2018-01-27T07:46:10.718Z,100633.95
2018-01-27T07:48:38.249Z,100632.85
2018-01-27T07:51:05.861Z,100632.11
2018-01-27T07:53:33.563Z,100634.80
2018-01-27T07:56:01.279Z,100634.24
2018-01-27T07:58:28.822Z,100644.23
2018-01-27T08:00:56.382Z,100642.09
2018-01-27T08:03:24.161Z,100636.69
2018-01-27T08:05:52.201Z,100639.12
2018-01-27T08:08:20.099Z,100639.06
2018-01-27T08:10:47.655Z,100632.98
2018-01-27T08:13:15.206Z,100640.11
2018-01-27T08:15:42.757Z,100640.70
2018-01-27T08:18:10.475Z,100637.93
2018-01-27T08:20:38.005Z,100634.32
2018-01-27T08:23:05.545Z,100632.63
2018-01-27T08:25:33.096Z,100629.92
2018-01-27T08:28:00.841Z,100638.10
2018-01-27T08:30:28.568Z,100640.84
2018-01-27T08:32:56.109Z,100634.63
2018-01-27T08:35:23.658Z,100632.66
2018-01-27T08:37:51.266Z,100626.11
2018-01-27T08:40:18.930Z,100626.27
2018-01-27T08:42:46.516Z,100629.74
2018-01-27T08:45:14.058Z,100627.63
2018-01-27T08:47:41.658Z,100626.03
2018-01-27T08:50:09.224Z,100625.33
2018-01-27T08:52:36.962Z,100624.20
2018-01-27T08:55:04.550Z,100624.55
2018-01-27T08:57:32.087Z,100628.47
2018-01-27T08:59:59.633Z,100619.50
2018-01-27T09:02:27.184Z,100622.68
2018-01-27T09:04:54.722Z,100621.77
2018-01-27T09:07:22.527Z,100619.36
2018-01-27T09:09:50.137Z,100616.48
2018-01-27T09:12:17.868Z,100620.36
2018-01-27T09:14:45.423Z,100618.86
2018-01-27T09:17:13.130Z,100621.70
2018-01-27T09:19:40.715Z,100618.35
2018-01-27T09:22:08.255Z,100618.93
2018-01-27T09:24:35.852Z,100615.33
2018-01-27T09:27:03.562Z,100617.70
2018-01-27T09:29:31.101Z,100608.11
2018-01-27T09:31:58.698Z,100609.57
2018-01-27T09:34:26.322Z,100613.25
2018-01-27T09:36:53.862Z,100605.12
2018-01-27T09:39:21.414Z,100597.25
2018-01-27T09:41:48.950Z,100597.53
2018-01-27T09:44:16.542Z,100600.50
2018-01-27T09:46:44.079Z,100597.38
2018-01-27T09:49:11.618Z,100597.84
2018-01-27T09:51:39.346Z,100599.95
2018-01-27T09:54:06.890Z,100595.80
2018-01-27T09:56:34.474Z,100591.84
2018-01-27T09:59:02.169Z,100586.61
2018-01-27T10:01:29.726Z,100585.09
2018-01-27T10:03:57.298Z,100576.30
2018-01-27T10:06:24.965Z,100576.67
2018-01-27T10:08:52.595Z,100576.23
2018-01-27T10:11:20.194Z,100576.31
2018-01-27T10:13:48.667Z,100575.75
2018-01-27T10:16:16.223Z,100573.84
2018-01-27T10:18:43.757Z,100582.59
2018-01-27T10:21:11.565Z,100578.12
2018-01-27T10:23:39.114Z,100572.37
2018-01-27T10:26:06.899Z,100577.31
2018-01-27T10:28:34.442Z,100571.75
2018-01-27T10:31:02.362Z,100570.30
2018-01-27T10:33:30.156Z,100568.34
2018-01-27T10:35:57.746Z,100564.73
2018-01-27T10:38:25.493Z,100566.41
2018-01-27T10:40:53.208Z,100560.98
2018-01-27T10:43:20.851Z,100562.69
2018-01-27T10:45:48.443Z,100567.37
2018-01-27T10:48:16.010Z,100565.45
2018-01-27T10:50:43.542Z,100562.77
2018-01-27T10:53:11.101Z,100558.33
2018-01-27T10:55:38.641Z,100562.09
2018-01-27T10:58:06.278Z,100558.28
2018-01-27T11:00:33.846Z,100559.72
2018-01-27T11:03:01.383Z,100561.02
2018-01-27T11:05:28.933Z,100556.71
2018-01-27T11:07:56.494Z,100552.66
2018-01-27T11:10:24.297Z,100551.85
2018-01-27T11:12:52.041Z,100546.77
2018-01-27T11:15:19.757Z,100549.16
2018-01-27T11:17:47.477Z,100545.84
2018-01-27T11:20:15.014Z,100547.91
2018-01-27T11:22:42.606Z,100544.14
2018-01-27T11:25:10.142Z,100546.12
2018-01-27T11:27:37.755Z,100544.41
2018-01-27T11:30:05.566Z,100546.59
2018-01-27T11:32:33.106Z,100550.23
2018-01-27T11:35:00.806Z,100547.48
2018-01-27T11:37:28.427Z,100536.23
2018-01-27T11:39:55.966Z,100543.36
2018-01-27T11:42:23.757Z,100538.83
2018-01-27T11:44:51.290Z,100541.33
2018-01-27T11:47:18.881Z,100539.55
2018-01-27T11:49:46.414Z,100534.89
2018-01-27T11:52:13.954Z,100535.23
2018-01-27T11:54:41.503Z,100539.95
2018-01-27T11:57:09.045Z,100539.39
2018-01-27T11:59:36.982Z,100540.67
2018-01-27T12:02:04.607Z,100543.06
2018-01-27T12:04:32.153Z,100534.34
2018-01-27T12:06:59.717Z,100535.00
2018-01-27T12:09:27.358Z,100535.66
2018-01-27T12:11:55.002Z,100532.91
2018-01-27T12:14:22.601Z,100532.16
2018-01-27T12:16:50.406Z,100530.66
2018-01-27T12:19:18.123Z,100537.98
2018-01-27T12:21:45.846Z,100539.13
2018-01-27T12:24:13.426Z,100543.73
2018-01-27T12:26:40.963Z,100542.77
2018-01-27T12:29:08.653Z,100544.61
2018-01-27T12:31:36.201Z,100537.84
2018-01-27T12:34:03.932Z,100544.95
2018-01-27T12:36:31.556Z,100537.55
2018-01-27T12:38:59.094Z,100534.52
2018-01-27T12:41:26.788Z,100544.50
2018-01-27T12:43:54.362Z,100544.64
2018-01-27T12:46:21.927Z,100543.39
2018-01-27T12:48:49.739Z,100543.77
2018-01-27T12:51:18.305Z,100543.73
2018-01-27T12:53:45.897Z,100541.97
2018-01-27T12:56:13.437Z,100542.82
2018-01-27T12:58:40.975Z,100547.69
2018-01-27T13:01:08.730Z,100539.48
2018-01-27T13:03:36.358Z,100551.64
2018-01-27T13:06:03.909Z,100547.93
2018-01-27T13:08:31.451Z,100551.67
2018-01-27T13:10:58.987Z,100555.10
2018-01-27T13:13:26.566Z,100542.50
2018-01-27T13:15:54.154Z,100549.70
2018-01-27T13:18:21.769Z,100553.27
2018-01-27T13:20:49.472Z,100554.23
2018-01-27T13:23:17.053Z,100554.79
2018-01-27T13:25:44.985Z,100551.02
2018-01-27T13:28:12.586Z,100555.81
2018-01-27T13:30:40.251Z,100556.42
2018-01-27T13:33:07.798Z,100555.67
2018-01-27T13:35:35.410Z,100558.22
2018-01-27T13:38:03.025Z,100558.09
2018-01-27T13:40:30.961Z,100558.91
2018-01-27T13:42:58.524Z,100559.25
2018-01-27T13:45:26.065Z,100562.69
2018-01-27T13:47:53.769Z,100562.08
2018-01-27T13:50:21.350Z,100562.23
2018-01-27T13:52:48.966Z,100559.59
2018-01-27T13:55:16.502Z,100560.23
2018-01-27T13:57:44.240Z,100565.36
2018-01-27T14:00:11.773Z,100565.05
2018-01-27T14:02:39.362Z,100568.03
2018-01-27T14:05:06.893Z,100573.72
2018-01-27T14:07:34.438Z,100567.92
2018-01-27T14:10:02.229Z,100571.44
2018-01-27T14:12:29.764Z,100572.83
2018-01-27T14:14:57.466Z,100570.59
2018-01-27T14:17:25.006Z,100566.37
2018-01-27T14:19:52.548Z,100565.09
2018-01-27T14:22:20.319Z,100571.27
2018-01-27T14:24:47.863Z,100570.83
2018-01-27T14:27:15.394Z,100577.61
2018-01-27T14:29:42.930Z,100581.84
2018-01-27T14:32:10.531Z,100581.31
2018-01-27T14:34:38.207Z,100577.95
2018-01-27T14:37:05.782Z,100586.97
2018-01-27T14:39:33.313Z,100581.09
2018-01-27T14:42:00.967Z,100584.50
2018-01-27T14:44:28.542Z,100591.10
2018-01-27T14:46:56.075Z,100585.74
2018-01-27T14:49:23.705Z,100584.77
2018-01-27T14:51:51.250Z,100590.07
2018-01-27T14:54:18.826Z,100600.13
2018-01-27T14:56:46.402Z,100599.23
2018-01-27T14:59:13.942Z,100596.42
2018-01-27T15:01:41.626Z,100601.94
2018-01-27T15:04:09.158Z,100609.73
2018-01-27T15:06:36.937Z,100620.73
2018-01-27T15:09:04.558Z,100623.02
2018-01-27T15:11:32.090Z,100625.27
2018-01-27T15:13:59.715Z,100630.09
2018-01-27T15:16:27.509Z,100631.62
2018-01-27T15:18:55.056Z,100633.23
2018-01-27T15:21:22.845Z,100639.10
2018-01-27T15:23:50.470Z,100638.73
2018-01-27T15:26:18.098Z,100638.00
2018-01-27T15:28:45.661Z,100637.09
2018-01-27T15:31:13.324Z,100639.70
2018-01-27T15:33:40.869Z,100640.12
2018-01-27T15:36:08.410Z,100637.00
2018-01-27T15:38:36.016Z,100639.86
2018-01-27T15:41:03.687Z,100646.48
2018-01-27T15:43:31.226Z,100647.55
2018-01-27T15:45:58.778Z,100648.23
2018-01-27T15:48:26.541Z,100650.47
2018-01-27T15:50:54.123Z,100655.42
2018-01-27T15:53:21.663Z,100661.48
2018-01-27T15:55:49.205Z,100651.84
2018-01-27T15:58:16.754Z,100658.48
2018-01-27T16:00:44.286Z,100660.14
2018-01-27T16:03:11.935Z,100662.92
2018-01-27T16:05:39.570Z,100667.12
2018-01-27T16:08:07.122Z,100666.41
2018-01-27T16:10:34.813Z,100675.01
2018-01-27T16:13:02.348Z,100676.16
2018-01-27T16:15:29.930Z,100682.05
2018-01-27T16:17:57.466Z,100682.95
2018-01-27T16:20:25.006Z,100686.14
2018-01-27T16:22:52.546Z,100681.80
2018-01-27T16:25:20.110Z,100680.30
2018-01-27T16:27:47.745Z,100678.95
2018-01-27T16:30:15.263Z,100681.16
2018-01-27T16:32:42.960Z,100683.16
2018-01-27T16:35:10.502Z,100687.81
2018-01-27T16:37:38.076Z,100695.66
2018-01-27T16:40:05.820Z,100696.18
2018-01-27T16:42:33.440Z,100697.36
2018-01-27T16:45:00.996Z,100699.40
2018-01-27T16:47:28.562Z,100704.03
2018-01-27T16:49:56.109Z,100695.66
2018-01-27T16:52:23.902Z,100699.40
2018-01-27T16:54:51.446Z,100706.32
2018-01-27T16:57:19.006Z,100706.52
2018-01-27T16:59:46.666Z,100700.11
2018-01-27T17:02:14.213Z,100707.39
2018-01-27T17:04:41.882Z,100709.53
2018-01-27T17:07:09.422Z,100710.84
2018-01-27T17:09:36.966Z,100710.08
2018-01-27T17:12:04.514Z,100710.02
2018-01-27T17:14:32.098Z,100714.73
2018-01-27T17:16:59.785Z,100712.02
2018-01-27T17:19:27.332Z,100721.00
2018-01-27T17:21:55.118Z,100720.23
2018-01-27T17:24:22.935Z,100715.27
2018-01-27T17:26:50.644Z,100721.98
2018-01-27T17:29:18.228Z,100717.48
2018-01-27T17:31:45.769Z,100715.44
2018-01-27T17:34:13.470Z,100713.70
2018-01-27T17:36:41.018Z,100709.44
2018-01-27T17:39:08.634Z,100714.16
2018-01-27T17:41:36.367Z,100726.06
2018-01-27T17:44:03.910Z,100727.80
2018-01-27T17:46:31.449Z,100732.55
2018-01-27T17:48:59.121Z,100732.59
2018-01-27T17:51:26.690Z,100736.41
2018-01-27T17:53:54.302Z,100734.70
2018-01-27T17:56:21.838Z,100737.72
2018-01-27T17:58:49.374Z,100735.19
2018-01-27T18:01:16.978Z,100738.22
2018-01-27T18:03:44.579Z,100737.02
2018-01-27T18:06:12.174Z,100736.59
2018-01-27T18:08:39.717Z,100735.48
2018-01-27T18:11:07.262Z,100734.38
2018-01-27T18:13:34.875Z,100746.41
2018-01-27T18:16:02.607Z,100735.73
2018-01-27T18:18:30.210Z,100743.06
2018-01-27T18:20:57.851Z,100742.01
2018-01-27T18:23:25.451Z,100746.27
2018-01-27T18:25:53.002Z,100736.19
2018-01-27T18:28:20.703Z,100747.16
2018-01-27T18:30:48.423Z,100750.63
2018-01-27T18:33:16.043Z,100748.48
2018-01-27T18:35:43.590Z,100754.00
2018-01-27T18:38:11.142Z,100752.22
2018-01-27T18:40:38.682Z,100753.21
2018-01-27T18:43:06.296Z,100748.17
2018-01-27T18:45:33.895Z,100750.80
2018-01-27T18:48:01.445Z,100751.29
2018-01-27T18:50:30.030Z,100755.07
2018-01-27T18:52:57.573Z,100755.52
2018-01-27T18:55:25.170Z,100761.52
2018-01-27T18:57:52.804Z,100763.33
2018-01-27T19:00:20.382Z,100764.56
2018-01-27T19:02:48.054Z,100765.73
2018-01-27T19:05:15.599Z,100765.73
2018-01-27T19:07:43.188Z,100763.64
2018-01-27T19:10:10.818Z,100770.44
2018-01-27T19:12:38.423Z,100765.83
2018-01-27T19:15:05.975Z,100765.03
2018-01-27T19:17:33.556Z,100769.36
2018-01-27T19:20:01.168Z,100777.11
2018-01-27T19:22:28.712Z,100778.41
2018-01-27T19:24:56.258Z,100784.41
2018-01-27T19:27:23.934Z,100789.96
2018-01-27T19:29:51.478Z,100784.36
2018-01-27T19:32:19.074Z,100787.78
2018-01-27T19:34:46.622Z,100790.34
2018-01-27T19:37:14.302Z,100793.34
2018-01-27T19:39:42.042Z,100794.24
2018-01-27T19:42:09.624Z,100795.94
2018-01-27T19:44:37.363Z,100791.35
2018-01-27T19:47:04.909Z,100787.55
2018-01-27T19:49:32.687Z,100790.09
2018-01-27T19:52:00.270Z,100793.92
2018-01-27T19:54:27.930Z,100786.33
2018-01-27T19:56:55.526Z,100794.45
2018-01-27T19:59:23.413Z,100785.94
2018-01-27T20:01:50.962Z,100790.27
2018-01-27T20:04:18.514Z,100783.94
2018-01-27T20:06:46.057Z,100785.59
2018-01-27T20:09:13.649Z,100782.75
2018-01-27T20:11:41.350Z,100789.14
2018-01-27T20:14:08.971Z,100790.43
2018-01-27T20:16:36.522Z,100791.68
2018-01-27T20:19:04.068Z,100793.05
2018-01-27T20:21:31.722Z,100788.34
2018-01-27T20:23:59.273Z,100789.66
2018-01-27T20:26:26.906Z,100788.83
2018-01-27T20:28:54.449Z,100794.39
2018-01-27T20:31:22.025Z,100788.40
2018-01-27T20:33:49.570Z,100783.27
2018-01-27T20:36:17.166Z,100787.53
2018-01-27T20:38:44.942Z,100788.39
2018-01-27T20:41:12.510Z,100792.69
2018-01-27T20:43:40.066Z,100790.65
2018-01-27T20:46:07.656Z,100792.42
2018-01-27T20:48:35.274Z,100796.27
2018-01-27T20:51:02.874Z,100798.09
2018-01-27T20:53:30.442Z,100797.61
2018-01-27T20:55:58.066Z,100810.34
2018-01-27T20:58:25.626Z,100806.09
2018-01-27T21:00:53.238Z,100807.77
2018-01-27T21:03:20.783Z,100811.20
2018-01-27T21:05:48.528Z,100809.16
2018-01-27T21:08:16.319Z,100809.58
2018-01-27T21:10:43.982Z,100813.39
2018-01-27T21:13:11.566Z,100809.58
2018-01-27T21:15:39.101Z,100817.69
2018-01-27T21:18:06.638Z,100810.98
2018-01-27T21:20:34.202Z,100812.28
2018-01-27T21:23:01.877Z,100815.69
2018-01-27T21:25:29.479Z,100815.25
2018-01-27T21:27:57.026Z,100814.45
2018-01-27T21:30:24.590Z,100801.36
2018-01-27T21:32:52.150Z,100818.73
2018-01-27T21:35:19.743Z,100814.50
2018-01-27T21:37:47.395Z,100815.34
2018-01-27T21:40:14.981Z,100816.63
2018-01-27T21:42:42.805Z,100825.98
2018-01-27T21:45:10.353Z,100826.00
2018-01-27T21:47:38.148Z,100828.11
2018-01-27T21:50:05.789Z,100824.73
2018-01-27T21:52:33.314Z,100822.58
2018-01-27T21:55:00.858Z,100818.77
2018-01-27T21:57:28.406Z,100820.92
2018-01-27T21:59:55.951Z,100817.96
2018-01-27T22:02:24.484Z,100824.34
2018-01-27T22:04:52.045Z,100825.59
2018-01-27T22:07:19.690Z,100830.72
2018-01-27T22:09:47.408Z,100827.77
2018-01-27T22:12:15.130Z,100825.19
2018-01-27T22:14:42.718Z,100823.09
2018-01-27T22:17:10.258Z,100826.11
2018-01-27T22:19:37.983Z,100822.67
2018-01-27T22:22:05.550Z,100829.53
2018-01-27T22:24:33.312Z,100827.03
2018-01-27T22:27:00.906Z,100826.17
2018-01-27T22:29:28.468Z,100822.38
2018-01-27T22:31:56.268Z,100818.54
2018-01-27T22:34:23.984Z,100816.41
2018-01-27T22:36:51.534Z,100814.34
2018-01-27T22:39:19.142Z,100816.45
2018-01-27T22:41:46.696Z,100814.73
2018-01-27T22:44:14.252Z,100814.33
2018-01-27T22:46:41.805Z,100816.03
2018-01-27T22:49:09.491Z,100812.69
2018-01-27T22:51:37.208Z,100811.42
2018-01-27T22:54:04.769Z,100812.67
2018-01-27T22:56:32.317Z,100808.84
2018-01-27T22:58:59.873Z,100807.98
2018-01-27T23:01:27.425Z,100807.14
2018-01-27T23:03:54.982Z,100813.06
2018-01-27T23:06:22.549Z,100808.41
2018-01-27T23:08:50.403Z,100807.13
2018-01-27T23:11:17.938Z,100807.56
2018-01-27T23:13:45.481Z,100815.23
2018-01-27T23:16:13.086Z,100813.09
2018-01-27T23:18:40.637Z,100809.73
2018-01-27T23:21:08.293Z,100807.19
2018-01-27T23:23:35.835Z,100808.86
2018-01-27T23:26:03.450Z,100811.41
2018-01-27T23:28:31.175Z,100811.39
2018-01-27T23:30:58.721Z,100812.66
2018-01-27T23:33:26.352Z,100809.30
2018-01-27T23:35:54.129Z,100805.11
2018-01-27T23:38:21.846Z,100808.53
2018-01-27T23:40:49.406Z,100810.24
2018-01-27T23:43:16.954Z,100808.55
2018-01-27T23:45:44.556Z,100812.81
2018-01-27T23:48:12.101Z,100813.66
2018-01-27T23:50:39.649Z,100809.85
2018-01-27T23:53:07.210Z,100811.13
2018-01-27T23:55:34.875Z,100809.82
2018-01-27T23:58:02.531Z,100824.27
